Time;durP1;ratioP1;P1;durP2;ratioP2;P2;SDS_P1;SDS_P2;PMS_P1;PMS_P2;Temp;Humidity;BMP_temperature;BMP_pressure;BME280_temperature;BME280_humidity;BME280_pressure;Samples;Min_cycle;Max_cycle;Signal;HPM_P1;HPM_P2
2021/01/02 00:02:02;;;;;;;1999.90;999.90;;;2.30;99.90;;;;;;5042586;28;20169;-80
2021/01/02 00:04:46;;;;;;;1999.90;999.90;;;2.40;99.90;;;;;;5024892;28;20185;-81
2021/01/02 00:07:23;;;;;;;1999.90;999.90;;;2.40;99.90;;;;;;5042358;28;20149;-80
2021/01/02 00:09:54;;;;;;;1999.90;999.90;;;2.40;99.90;;;;;;5042596;28;20616;-80
2021/01/02 00:13:00;;;;;;;1999.90;999.90;;;2.40;99.90;;;;;;5023805;28;20211;-81
2021/01/02 00:15:50;;;;;;;1999.90;999.90;;;2.40;99.90;;;;;;5016120;28;20192;-80
2021/01/02 00:18:36;;;;;;;1999.90;999.90;;;2.40;99.90;;;;;;5042687;28;20512;-81
2021/01/02 00:21:11;;;;;;;1999.90;999.90;;;2.40;99.90;;;;;;5023782;28;20248;-81
2021/01/02 00:23:43;;;;;;;1999.90;999.90;;;2.40;99.90;;;;;;5024869;28;20188;-81
2021/01/02 00:26:47;;;;;;;1999.90;999.90;;;2.40;99.90;;;;;;5023856;28;20165;-81
2021/01/02 00:29:22;;;;;;;1999.90;999.90;;;2.40;99.90;;;;;;5042083;28;20157;-81
2021/01/02 00:32:07;;;;;;;1999.90;999.90;;;2.40;99.90;;;;;;5023863;28;20673;-81
2021/01/02 00:34:44;;;;;;;1999.90;999.90;;;2.40;99.90;;;;;;5024074;28;20650;-81
2021/01/02 00:37:36;;;;;;;1999.90;999.90;;;2.50;99.90;;;;;;5040523;28;20167;-80
2021/01/02 00:40:20;;;;;;;1999.90;999.90;;;2.40;99.90;;;;;;5041403;28;20181;-81
2021/01/02 00:42:47;;;;;;;1999.90;999.90;;;2.50;99.90;;;;;;5112997;22;20618;-82
2021/01/02 00:45:18;;;;;;;1999.90;999.90;;;2.40;99.90;;;;;;5039973;28;20244;-83
2021/01/02 00:47:44;;;;;;;1999.90;999.90;;;2.50;99.90;;;;;;5040675;28;20146;-82
2021/01/02 00:50:12;;;;;;;1999.90;999.90;;;2.50;99.90;;;;;;5040002;28;20240;-82
2021/01/02 00:52:41;;;;;;;1999.90;999.90;;;2.50;99.90;;;;;;5040410;28;20631;-82
2021/01/02 00:55:31;;;;;;;1999.90;999.90;;;2.40;99.90;;;;;;5039932;28;20193;-82
2021/01/02 00:58:20;;;;;;;1999.90;999.90;;;2.50;99.90;;;;;;5040078;28;20579;-82
2021/01/02 01:01:03;;;;;;;1999.90;999.90;;;2.40;99.90;;;;;;5039703;28;20153;-82
2021/01/02 01:03:44;;;;;;;1999.90;999.90;;;2.50;99.90;;;;;;5039040;28;20184;-82
2021/01/02 01:06:11;;;;;;;1999.90;999.90;;;2.40;99.90;;;;;;5039796;28;20604;-82
2021/01/02 01:08:42;;;;;;;1999.90;999.90;;;2.40;99.90;;;;;;5039326;28;20166;-82
2021/01/02 01:11:14;;;;;;;1999.90;999.90;;;2.40;99.90;;;;;;5021359;28;20185;-82
2021/01/02 01:13:41;;;;;;;1999.90;999.90;;;2.40;99.90;;;;;;5039431;28;20169;-82
2021/01/02 01:16:07;;;;;;;1999.90;999.90;;;2.40;99.90;;;;;;5039684;28;20172;-82
2021/01/02 01:18:48;;;;;;;1999.90;999.90;;;2.40;99.90;;;;;;5039630;28;20173;-82
2021/01/02 01:21:15;;;;;;;1999.90;999.90;;;2.40;99.90;;;;;;5022034;28;20169;-82
2021/01/02 01:24:13;;;;;;;1999.90;999.90;;;2.40;99.90;;;;;;5021778;28;20551;-82
2021/01/02 01:26:59;;;;;;;1999.90;999.90;;;2.50;99.90;;;;;;5039224;28;20192;-82
2021/01/02 01:29:28;;;;;;;1999.90;999.90;;;2.50;99.90;;;;;;5038892;28;20192;-83
2021/01/02 01:31:58;;;;;;;1999.90;999.90;;;2.60;99.90;;;;;;5038727;28;20162;-82
2021/01/02 01:34:27;;;;;;;1999.90;999.90;;;2.50;99.90;;;;;;5021764;28;20639;-82
2021/01/02 01:36:54;;;;;;;1999.90;999.90;;;2.60;99.90;;;;;;5022167;28;20173;-82
2021/01/02 01:39:24;;;;;;;1999.90;999.90;;;2.60;99.90;;;;;;5038964;28;20165;-83
2021/01/02 01:41:58;;;;;;;1999.90;999.90;;;2.60;99.90;;;;;;5039148;28;20211;-82
2021/01/02 01:44:57;;;;;;;1999.90;999.90;;;2.60;99.90;;;;;;5039111;28;20656;-82
2021/01/02 01:47:53;;;;;;;1999.90;999.90;;;2.50;99.90;;;;;;5020887;28;20173;-82
2021/01/02 01:50:56;;;;;;;1999.90;999.90;;;2.50;99.90;;;;;;5038185;28;20256;-82
2021/01/02 01:54:08;;;;;;;1999.90;999.90;;;2.50;99.90;;;;;;5038581;28;20169;-83
2021/01/02 01:56:48;;;;;;;1999.90;999.90;;;2.40;99.90;;;;;;4988564;28;20259;-82
2021/01/02 01:59:17;;;;;;;1999.90;999.90;;;2.40;99.90;;;;;;5039345;28;20145;-82
2021/01/02 02:01:55;;;;;;;1999.90;999.90;;;2.40;99.90;;;;;;5021186;28;20191;-82
2021/01/02 02:04:26;;;;;;;1999.90;999.90;;;2.40;99.90;;;;;;5038734;28;20252;-82
2021/01/02 02:07:00;;;;;;;1999.90;999.90;;;2.30;99.90;;;;;;5039560;28;20218;-82
2021/01/02 02:09:42;;;;;;;1999.90;999.90;;;2.30;99.90;;;;;;5022122;28;20154;-82
2021/01/02 02:12:20;;;;;;;1999.90;999.90;;;2.20;99.90;;;;;;5021730;28;20176;-83
2021/01/02 02:14:58;;;;;;;1999.90;999.90;;;2.20;99.90;;;;;;5021797;28;20517;-82
2021/01/02 02:17:26;;;;;;;1999.90;999.90;;;2.10;99.90;;;;;;5020796;28;20543;-82
2021/01/02 02:19:55;;;;;;;1999.90;999.90;;;2.10;99.90;;;;;;5038194;28;20173;-83
2021/01/02 02:22:25;;;;;;;1999.90;999.90;;;2.10;99.90;;;;;;5039575;28;20177;-82
2021/01/02 02:24:55;;;;;;;1999.90;999.90;;;2.00;99.90;;;;;;5021902;28;20249;-83
2021/01/02 02:27:26;;;;;;;1999.90;999.90;;;2.00;99.90;;;;;;5021196;28;20180;-83
2021/01/02 02:30:07;;;;;;;1999.90;999.90;;;2.00;99.90;;;;;;5021205;28;20169;-83
2021/01/02 02:32:38;;;;;;;1999.90;999.90;;;2.00;99.90;;;;;;5039282;28;20161;-82
2021/01/02 02:35:24;;;;;;;1999.90;999.90;;;1.90;99.90;;;;;;5021417;28;20177;-82
2021/01/02 02:37:51;;;;;;;1999.90;999.90;;;2.00;99.90;;;;;;5038660;28;20547;-82
2021/01/02 02:40:19;;;;;;;1999.90;999.90;;;2.00;99.90;;;;;;5037835;28;20176;-82
2021/01/02 02:43:04;;;;;;;1999.90;999.90;;;2.00;99.90;;;;;;5020972;28;20200;-82
2021/01/02 02:45:31;;;;;;;1999.90;999.90;;;2.00;99.90;;;;;;5045358;28;20235;-82
2021/01/02 02:48:02;;;;;;;1999.90;999.90;;;2.00;99.90;;;;;;5034304;28;20230;-82
2021/01/02 02:50:29;;;;;;;1999.90;999.90;;;2.10;99.90;;;;;;5044886;28;20508;-82
2021/01/02 02:53:17;;;;;;;1999.90;999.90;;;2.10;99.90;;;;;;5038901;28;20197;-82
2021/01/02 02:55:43;;;;;;;1999.90;999.90;;;2.10;99.90;;;;;;5086452;23;20168;-83
2021/01/02 03:00:42;;;;;;;1999.90;999.90;;;2.20;99.90;;;;;;5142758;23;20488;-83
2021/01/02 03:03:10;;;;;;;1999.90;999.90;;;2.20;99.90;;;;;;5022618;28;20208;-83
2021/01/02 03:05:38;;;;;;;1999.90;999.90;;;2.20;99.90;;;;;;5004702;28;20603;-82
2021/01/02 03:08:05;;;;;;;1999.90;999.90;;;2.20;99.90;;;;;;5022940;28;20158;-82
2021/01/02 03:10:31;;;;;;;1999.90;999.90;;;2.30;99.90;;;;;;5022353;28;20653;-82
2021/01/02 03:12:56;;;;;;;1999.90;999.90;;;2.30;99.90;;;;;;5088258;23;20236;-83
2021/01/02 03:15:26;;;;;;;1999.90;999.90;;;2.30;99.90;;;;;;5017122;28;20514;-84
2021/01/02 03:17:52;;;;;;;1999.90;999.90;;;2.30;99.90;;;;;;5016251;28;20169;-83
2021/01/02 03:20:18;;;;;;;1999.90;999.90;;;2.30;99.90;;;;;;5017309;28;20194;-83
2021/01/02 03:22:46;;;;;;;1999.90;999.90;;;2.40;99.90;;;;;;4999712;28;20202;-84
2021/01/02 03:25:13;;;;;;;1999.90;999.90;;;2.40;99.90;;;;;;5017477;28;20248;-83
2021/01/02 03:27:39;;;;;;;1999.90;999.90;;;2.40;99.90;;;;;;5017447;28;20162;-83
2021/01/02 03:30:07;;;;;;;1999.90;999.90;;;2.40;99.90;;;;;;5017092;28;20213;-83
2021/01/02 03:32:37;;;;;;;1999.90;999.90;;;2.50;99.90;;;;;;5017415;28;20158;-83
2021/01/02 03:35:08;;;;;;;1999.90;999.90;;;2.50;99.90;;;;;;4999500;28;20170;-83
2021/01/02 03:37:35;;;;;;;1999.90;999.90;;;2.50;99.90;;;;;;5016953;28;20506;-83
2021/01/02 03:40:01;;;;;;;1999.90;999.90;;;2.50;99.90;;;;;;5016946;28;20673;-84
2021/01/02 03:42:26;;;;;;;1999.90;999.90;;;2.50;99.90;;;;;;5016955;28;20170;-83
2021/01/02 03:44:52;;;;;;;1999.90;999.90;;;2.50;99.90;;;;;;5016780;28;20162;-83
2021/01/02 03:47:18;;;;;;;1999.90;999.90;;;2.50;99.90;;;;;;4999400;28;20188;-83
2021/01/02 03:49:43;;;;;;;1999.90;999.90;;;2.40;99.90;;;;;;5016682;28;20245;-83
2021/01/02 03:52:09;;;;;;;1999.90;999.90;;;2.50;99.90;;;;;;5016485;28;20162;-83
2021/01/02 03:54:35;;;;;;;1999.90;999.90;;;2.40;99.90;;;;;;4999216;28;20637;-83
2021/01/02 03:57:01;;;;;;;1999.90;999.90;;;2.40;99.90;;;;;;4999935;28;20549;-83
2021/01/02 03:59:27;;;;;;;1999.90;999.90;;;2.40;99.90;;;;;;5016395;28;20487;-83
2021/01/02 04:01:57;;;;;;;1999.90;999.90;;;2.40;99.90;;;;;;5016448;28;20224;-83
2021/01/02 04:04:23;;;;;;;1999.90;999.90;;;2.40;99.90;;;;;;5016145;28;20219;-84
2021/01/02 04:06:51;;;;;;;1999.90;999.90;;;2.30;99.90;;;;;;5016961;28;20517;-83
2021/01/02 04:09:17;;;;;;;1999.90;999.90;;;2.30;99.90;;;;;;5016554;28;20154;-84
2021/01/02 04:11:44;;;;;;;1999.90;999.90;;;2.30;99.90;;;;;;5016942;28;20288;-83
2021/01/02 04:14:10;;;;;;;1999.90;999.90;;;2.20;99.90;;;;;;5016787;28;20189;-83
2021/01/02 04:16:39;;;;;;;1999.90;999.90;;;2.20;99.90;;;;;;5016341;28;20533;-83
2021/01/02 04:19:06;;;;;;;1999.90;999.90;;;2.20;99.90;;;;;;5015928;28;20540;-83
2021/01/02 04:21:33;;;;;;;1999.90;999.90;;;2.30;99.90;;;;;;5016109;28;20195;-84
2021/01/02 04:23:58;;;;;;;1999.90;999.90;;;2.30;99.90;;;;;;4998576;28;20280;-83
2021/01/02 04:26:25;;;;;;;1999.90;999.90;;;2.30;99.90;;;;;;4998654;28;20651;-83
2021/01/02 04:28:54;;;;;;;1999.90;999.90;;;2.30;99.90;;;;;;5015988;28;20532;-83
2021/01/02 04:31:39;;;;;;;1999.90;999.90;;;2.20;99.90;;;;;;5015903;28;20212;-83
2021/01/02 04:34:06;;;;;;;1999.90;999.90;;;2.20;99.90;;;;;;4999077;28;20520;-83
2021/01/02 04:36:32;;;;;;;1999.90;999.90;;;2.20;99.90;;;;;;4998433;28;20569;-84
2021/01/02 04:38:58;;;;;;;1999.90;999.90;;;2.30;99.90;;;;;;5016061;28;20556;-83
2021/01/02 04:41:24;;;;;;;1999.90;999.90;;;2.30;99.90;;;;;;4998232;28;20177;-83
2021/01/02 04:43:51;;;;;;;1999.90;999.90;;;2.30;99.90;;;;;;5015297;28;21050;-83
2021/01/02 04:46:17;;;;;;;1999.90;999.90;;;2.30;99.90;;;;;;4998813;28;20166;-83
2021/01/02 04:48:45;;;;;;;1999.90;999.90;;;2.30;99.90;;;;;;5015487;28;20166;-84
2021/01/02 04:51:12;;;;;;;1999.90;999.90;;;2.20;99.90;;;;;;5015572;28;20286;-83
2021/01/02 04:53:38;;;;;;;1999.90;999.90;;;2.30;99.90;;;;;;4997791;28;20556;-84
2021/01/02 04:56:05;;;;;;;1999.90;999.90;;;2.40;99.90;;;;;;5015349;28;20166;-84
2021/01/02 04:58:32;;;;;;;1999.90;999.90;;;2.30;99.90;;;;;;4997595;28;20541;-84
2021/01/02 05:01:00;;;;;;;1999.90;999.90;;;2.30;99.90;;;;;;4997849;28;20224;-84
2021/01/02 05:03:25;;;;;;;1999.90;999.90;;;2.30;99.90;;;;;;5015421;28;20239;-84
2021/01/02 05:05:51;;;;;;;1999.90;999.90;;;2.30;99.90;;;;;;5015928;28;20174;-84
2021/01/02 05:08:17;;;;;;;1999.90;999.90;;;2.30;99.90;;;;;;5015189;28;20177;-84
2021/01/02 05:11:00;;;;;;;1999.90;999.90;;;2.30;99.90;;;;;;5014790;28;20764;-83
2021/01/02 05:13:30;;;;;;;1999.90;999.90;;;2.40;99.90;;;;;;4997364;28;20429;-84
2021/01/02 05:16:13;;;;;;;1999.90;999.90;;;2.40;99.90;;;;;;5015168;28;20227;-83
2021/01/02 05:18:55;;;;;;;1999.90;999.90;;;2.40;99.90;;;;;;5014195;28;20189;-84
2021/01/02 05:21:21;;;;;;;1999.90;999.90;;;2.40;99.90;;;;;;5014693;28;20154;-84
2021/01/02 05:24:12;;;;;;;1999.90;999.90;;;2.40;99.90;;;;;;5014813;28;20190;-84
2021/01/02 05:26:43;;;;;;;1999.90;999.90;;;2.40;99.90;;;;;;5015114;28;20249;-84
2021/01/02 05:29:13;;;;;;;1999.90;999.90;;;2.40;99.90;;;;;;5015360;28;20185;-84
2021/01/02 05:31:40;;;;;;;1999.90;999.90;;;2.50;99.90;;;;;;5014844;28;20521;-84
2021/01/02 05:34:08;;;;;;;1999.90;999.90;;;2.40;99.90;;;;;;4997162;28;20205;-83
2021/01/02 05:36:33;;;;;;;1999.90;999.90;;;2.40;99.90;;;;;;5014573;28;20166;-84
2021/01/02 05:39:00;;;;;;;1999.90;999.90;;;2.40;99.90;;;;;;5014450;28;20166;-84
2021/01/02 05:41:26;;;;;;;1999.90;999.90;;;2.50;99.90;;;;;;5014647;28;20883;-83
2021/01/02 05:43:53;;;;;;;1999.90;999.90;;;2.50;99.90;;;;;;5014565;28;20280;-84
2021/01/02 05:46:21;;;;;;;1999.90;999.90;;;2.40;99.90;;;;;;4997180;28;20531;-83
2021/01/02 05:48:47;;;;;;;1999.90;999.90;;;2.50;99.90;;;;;;5014608;28;20241;-84
2021/01/02 05:51:13;;;;;;;1999.90;999.90;;;2.50;99.90;;;;;;5014593;28;20185;-84
2021/01/02 05:53:42;;;;;;;1999.90;999.90;;;2.50;99.90;;;;;;4996932;28;20644;-84
2021/01/02 05:56:13;;;;;;;1999.90;999.90;;;2.50;99.90;;;;;;4997584;28;20173;-84
2021/01/02 05:58:40;;;;;;;1999.90;999.90;;;2.50;99.90;;;;;;4997144;28;20514;-84
2021/01/02 06:01:11;;;;;;;1999.90;999.90;;;2.60;99.90;;;;;;5014556;28;20176;-84
2021/01/02 06:03:39;;;;;;;1999.90;999.90;;;2.50;99.90;;;;;;5014749;28;20189;-84
2021/01/02 06:06:07;;;;;;;1999.90;999.90;;;2.50;99.90;;;;;;4996899;28;20173;-84
2021/01/02 06:08:44;;;;;;;1999.90;999.90;;;2.50;99.90;;;;;;4996761;28;20162;-84
2021/01/02 06:11:16;;;;;;;1999.90;999.90;;;2.60;99.90;;;;;;5014585;28;20146;-84
2021/01/02 06:13:45;;;;;;;1999.90;999.90;;;2.60;99.90;;;;;;5014311;28;20197;-84
2021/01/02 06:16:11;;;;;;;1999.90;999.90;;;2.70;99.90;;;;;;5014929;28;20186;-84
2021/01/02 06:18:39;;;;;;;1999.90;999.90;;;2.70;99.90;;;;;;5014387;28;20170;-84
2021/01/02 06:21:15;;;;;;;1999.90;999.90;;;2.70;99.90;;;;;;5014633;28;20576;-84
2021/01/02 06:23:43;;;;;;;1999.90;999.90;;;2.70;99.90;;;;;;5014344;28;20656;-84
2021/01/02 06:26:15;;;;;;;1999.90;999.90;;;2.60;99.90;;;;;;5014807;28;20181;-84
2021/01/02 06:28:45;;;;;;;1999.90;999.90;;;2.60;99.90;;;;;;4997152;28;20257;-84
2021/01/02 06:31:16;;;;;;;1999.90;999.90;;;2.60;99.90;;;;;;4996883;28;20159;-84
2021/01/02 06:33:46;;;;;;;1999.90;999.90;;;2.60;99.90;;;;;;5016100;28;20277;-84
2021/01/02 06:36:39;;;;;;;1999.90;999.90;;;2.60;99.90;;;;;;5000617;28;20178;-83
2021/01/02 06:39:27;;;;;;;1999.90;999.90;;;2.70;99.90;;;;;;5000475;28;20169;-84
2021/01/02 06:41:54;;;;;;;1999.90;999.90;;;2.70;99.90;;;;;;5000463;28;20169;-84
2021/01/02 06:44:39;;;;;;;1999.90;999.90;;;2.70;99.90;;;;;;5018258;28;20190;-84
2021/01/02 06:47:21;;;;;;;1999.90;999.90;;;2.70;99.90;;;;;;5001316;28;20166;-84
2021/01/02 06:49:47;;;;;;;1999.90;999.90;;;2.70;99.90;;;;;;5019149;28;20166;-84
2021/01/02 06:52:33;;;;;;;1999.90;999.90;;;2.60;99.90;;;;;;5000467;28;20170;-83
2021/01/02 06:55:21;;;;;;;1999.90;999.90;;;2.60;99.90;;;;;;5017768;28;20162;-84
2021/01/02 06:57:48;;;;;;;1999.90;999.90;;;2.60;99.90;;;;;;5000439;28;20172;-84
2021/01/02 07:00:27;;;;;;;1999.90;999.90;;;2.60;99.90;;;;;;5000599;28;20177;-84
2021/01/02 07:02:56;;;;;;;1999.90;999.90;;;2.60;99.90;;;;;;5018489;28;20200;-84
2021/01/02 07:05:47;;;;;;;1999.90;999.90;;;2.60;99.90;;;;;;5000997;28;20811;-84
2021/01/02 07:08:42;;;;;;;1999.90;999.90;;;2.70;99.90;;;;;;5018126;28;20166;-84
2021/01/02 07:11:24;;;;;;;1999.90;999.90;;;2.60;99.90;;;;;;5017694;28;20775;-84
2021/01/02 07:14:14;;;;;;;1999.90;999.90;;;2.60;99.90;;;;;;5017760;28;20185;-84
2021/01/02 07:16:47;;;;;;;1999.90;999.90;;;2.60;99.90;;;;;;4995885;28;20205;-84
2021/01/02 07:19:30;;;;;;;1999.90;999.90;;;2.70;99.90;;;;;;5000440;28;20308;-84
2021/01/02 07:22:15;;;;;;;1999.90;999.90;;;2.60;99.90;;;;;;5018101;28;20241;-84
2021/01/02 07:24:42;;;;;;;1999.90;999.90;;;2.60;99.90;;;;;;5017891;28;20185;-84
2021/01/02 07:27:12;;;;;;;1999.90;999.90;;;2.70;99.90;;;;;;5018127;28;20219;-84
2021/01/02 07:29:40;;;;;;;1999.90;999.90;;;2.60;99.90;;;;;;5018543;28;20209;-84
2021/01/02 07:32:08;;;;;;;1999.90;999.90;;;2.60;99.90;;;;;;5000145;28;20304;-83
2021/01/02 07:34:35;;;;;;;1999.90;999.90;;;2.70;99.90;;;;;;5017659;28;20173;-84
2021/01/02 07:37:11;;;;;;;1999.90;999.90;;;2.70;99.90;;;;;;5017686;28;20173;-84
2021/01/02 07:39:38;;;;;;;1999.90;999.90;;;2.70;99.90;;;;;;5001282;28;20176;-84
2021/01/02 07:42:09;;;;;;;1999.90;999.90;;;2.80;99.90;;;;;;5000494;28;20173;-84
2021/01/02 07:44:36;;;;;;;1999.90;999.90;;;2.70;99.90;;;;;;5017456;28;20188;-84
2021/01/02 07:47:02;;;;;;;1999.90;999.90;;;2.70;99.90;;;;;;5017998;28;20162;-85
2021/01/02 07:49:28;;;;;;;1999.90;999.90;;;2.70;99.90;;;;;;5000879;28;20173;-85
2021/01/02 07:51:54;;;;;;;1999.90;999.90;;;2.80;99.90;;;;;;5018403;28;20533;-85
2021/01/02 07:54:36;;;;;;;1999.90;999.90;;;2.80;99.90;;;;;;5000760;28;20447;-85
2021/01/02 07:57:05;;;;;;;1999.90;999.90;;;2.80;99.90;;;;;;5001123;28;20645;-85
2021/01/02 07:59:37;;;;;;;1999.90;999.90;;;2.80;99.90;;;;;;5018169;28;20201;-85
2021/01/02 08:02:08;;;;;;;1999.90;999.90;;;2.80;99.90;;;;;;5000596;28;20249;-85
2021/01/02 08:04:35;;;;;;;1999.90;999.90;;;2.80;99.90;;;;;;5017680;28;20182;-85
2021/01/02 08:07:06;;;;;;;1999.90;999.90;;;2.80;99.90;;;;;;5000388;28;20197;-85
2021/01/02 08:09:34;;;;;;;1999.90;999.90;;;2.80;99.90;;;;;;5017726;28;20516;-85
2021/01/02 08:12:11;;;;;;;1999.90;999.90;;;2.80;99.90;;;;;;5000082;28;20624;-84
2021/01/02 08:14:41;;;;;;;1999.90;999.90;;;2.70;99.90;;;;;;5017112;28;20165;-84
2021/01/02 08:17:09;;;;;;;1999.90;999.90;;;2.70;99.90;;;;;;5000263;28;20166;-85
2021/01/02 08:19:37;;;;;;;1999.90;999.90;;;2.70;99.90;;;;;;5018178;28;20173;-85
2021/01/02 08:22:06;;;;;;;1999.90;999.90;;;2.70;99.90;;;;;;5000287;28;20209;-85
2021/01/02 08:24:31;;;;;;;1999.90;999.90;;;2.70;99.90;;;;;;5017642;28;20609;-85
2021/01/02 08:26:59;;;;;;;1999.90;999.90;;;2.80;99.90;;;;;;5017802;28;20169;-85
2021/01/02 08:29:26;;;;;;;1999.90;999.90;;;2.70;99.90;;;;;;5017800;28;20397;-85
2021/01/02 08:31:57;;;;;;;1999.90;999.90;;;2.70;99.90;;;;;;5000166;28;20174;-84
2021/01/02 08:34:29;;;;;;;1999.90;999.90;;;2.70;99.90;;;;;;5000050;28;20544;-85
2021/01/02 08:37:17;;;;;;;1999.90;999.90;;;2.70;99.90;;;;;;5018064;28;20157;-84
2021/01/02 08:39:43;;;;;;;1999.90;999.90;;;2.80;99.90;;;;;;5017483;28;20196;-85
2021/01/02 08:42:09;;;;;;;1999.90;999.90;;;2.80;99.90;;;;;;5017819;28;20166;-85
2021/01/02 08:44:43;;;;;;;1999.90;999.90;;;2.90;99.90;;;;;;5017101;28;20200;-85
2021/01/02 08:47:24;;;;;;;1999.90;999.90;;;3.00;99.90;;;;;;5017429;28;20150;-85
2021/01/02 08:49:50;;;;;;;1999.90;999.90;;;3.00;99.90;;;;;;5000102;28;20509;-84
2021/01/02 08:52:20;;;;;;;1999.90;999.90;;;3.00;99.90;;;;;;5017115;28;20162;-85
2021/01/02 08:54:47;;;;;;;1999.90;999.90;;;3.00;99.90;;;;;;4999274;28;20599;-85
2021/01/02 08:57:33;;;;;;;1999.90;999.90;;;3.00;99.90;;;;;;4998501;28;20176;-85
2021/01/02 09:00:05;;;;;;;1999.90;999.90;;;3.00;99.90;;;;;;5017113;28;20216;-85
2021/01/02 09:02:31;;;;;;;1999.90;999.90;;;3.10;99.90;;;;;;5017099;28;20256;-84
2021/01/02 09:05:12;;;;;;;1999.90;999.90;;;3.10;99.90;;;;;;4998921;28;20249;-85
2021/01/02 09:07:39;;;;;;;1999.90;999.90;;;3.20;99.90;;;;;;4998818;28;20407;-84
2021/01/02 09:10:19;;;;;;;1999.90;999.90;;;3.30;99.90;;;;;;4999179;28;20169;-85
2021/01/02 09:13:22;;;;;;;1999.90;999.90;;;3.20;99.90;;;;;;4998582;28;20198;-85
2021/01/02 09:16:06;;;;;;;1999.90;999.90;;;3.30;99.90;;;;;;4995561;28;20178;-85
2021/01/02 09:18:31;;;;;;;1999.90;999.90;;;3.30;99.90;;;;;;4999049;28;20205;-85
2021/01/02 09:21:09;;;;;;;1999.90;999.90;;;3.40;99.90;;;;;;4998553;28;20173;-85
2021/01/02 09:23:39;;;;;;;1999.90;999.90;;;3.40;99.90;;;;;;5016126;28;20204;-85
2021/01/02 09:26:35;;;;;;;1999.90;999.90;;;3.40;99.90;;;;;;4999905;28;20162;-85
2021/01/02 09:29:21;;;;;;;1999.90;999.90;;;3.60;99.90;;;;;;4999000;28;20189;-85
2021/01/02 09:31:48;;;;;;;1999.90;999.90;;;3.50;99.90;;;;;;4997982;28;20542;-85
2021/01/02 09:34:14;;;;;;;1999.90;999.90;;;3.60;99.90;;;;;;4998521;28;20194;-85
2021/01/02 09:36:39;;;;;;;1999.90;999.90;;;3.70;99.90;;;;;;5016354;28;20170;-85
2021/01/02 09:39:06;;;;;;;1999.90;999.90;;;3.60;99.90;;;;;;4998776;28;20169;-85
2021/01/02 09:41:32;;;;;;;1999.90;999.90;;;3.60;99.90;;;;;;4998919;28;20177;-85
2021/01/02 09:43:58;;;;;;;1999.90;999.90;;;3.70;99.90;;;;;;4998445;28;20197;-84
2021/01/02 09:46:27;;;;;;;1999.90;999.90;;;3.70;99.90;;;;;;5016256;28;20162;-85
2021/01/02 09:48:55;;;;;;;1999.90;999.90;;;3.60;99.90;;;;;;5016434;28;20154;-85
2021/01/02 09:51:25;;;;;;;1999.90;999.90;;;3.60;99.90;;;;;;5016574;28;20219;-85
2021/01/02 09:53:51;;;;;;;1999.90;999.90;;;3.60;99.90;;;;;;4998365;28;20174;-85
2021/01/02 09:56:17;;;;;;;1999.90;999.90;;;3.70;99.90;;;;;;5016077;28;20657;-85
2021/01/02 09:58:43;;;;;;;1999.90;999.90;;;3.80;99.90;;;;;;5016493;28;20173;-85
2021/01/02 10:01:09;;;;;;;1999.90;999.90;;;3.80;99.90;;;;;;4998864;28;20223;-85
2021/01/02 10:03:35;;;;;;;1999.90;999.90;;;3.90;99.90;;;;;;4998922;28;20193;-84
2021/01/02 10:06:03;;;;;;;1999.90;999.90;;;4.00;99.90;;;;;;5016011;28;20162;-85
2021/01/02 10:08:28;;;;;;;1999.90;999.90;;;4.00;99.90;;;;;;5019018;28;20502;-85
2021/01/02 10:10:57;;;;;;;1999.90;999.90;;;4.10;99.90;;;;;;5021561;28;20168;-84
2021/01/02 10:13:23;;;;;;;1999.90;999.90;;;4.20;99.90;;;;;;5022586;28;20181;-85
2021/01/02 10:15:48;;;;;;;1999.90;999.90;;;4.20;99.90;;;;;;5022993;28;20636;-85
2021/01/02 10:18:15;;;;;;;1999.90;999.90;;;4.30;99.90;;;;;;5022290;28;20702;-85
2021/01/02 10:20:40;;;;;;;1999.90;999.90;;;4.30;99.90;;;;;;5004865;28;20525;-85
2021/01/02 10:23:06;;;;;;;1999.90;999.90;;;4.40;99.90;;;;;;5022077;28;20189;-85
2021/01/02 10:25:32;;;;;;;1999.90;999.90;;;4.40;99.90;;;;;;5022145;28;20170;-85
2021/01/02 10:27:58;;;;;;;1999.90;999.90;;;4.50;99.90;;;;;;5022940;28;20533;-85
2021/01/02 10:30:23;;;;;;;1999.90;999.90;;;4.50;99.90;;;;;;5022196;28;20162;-85
2021/01/02 10:32:49;;;;;;;1999.90;999.90;;;4.60;99.90;;;;;;5021865;28;20704;-85
2021/01/02 10:35:17;;;;;;;1999.90;999.90;;;4.60;99.90;;;;;;5004833;28;20413;-85
2021/01/02 10:37:46;;;;;;;1999.90;999.90;;;4.60;99.90;;;;;;5022463;28;20616;-85
2021/01/02 10:40:13;;;;;;;1999.90;999.90;;;4.70;99.90;;;;;;5004557;28;20518;-85
2021/01/02 10:42:40;;;;;;;1999.90;999.90;;;4.70;99.90;;;;;;5022245;28;20208;-85
2021/01/02 10:45:08;;;;;;;1999.90;999.90;;;4.70;99.90;;;;;;5022667;28;20162;-85
2021/01/02 10:47:38;;;;;;;1999.90;999.90;;;4.80;99.90;;;;;;5021892;28;20194;-85
2021/01/02 10:50:05;;;;;;;1999.90;999.90;;;4.80;99.90;;;;;;5022251;28;20169;-84
2021/01/02 10:52:30;;;;;;;1999.90;999.90;;;4.70;99.90;;;;;;5005347;28;20435;-85
2021/01/02 10:54:56;;;;;;;1999.90;999.90;;;4.60;99.90;;;;;;5004936;28;20174;-85
2021/01/02 10:57:26;;;;;;;1999.90;999.90;;;4.70;99.90;;;;;;5021903;28;20613;-85
2021/01/02 10:59:52;;;;;;;1999.90;999.90;;;4.70;99.90;;;;;;5022251;28;20601;-85
2021/01/02 11:02:18;;;;;;;1999.90;999.90;;;4.80;99.90;;;;;;5021812;28;20170;-85
2021/01/02 11:04:44;;;;;;;1999.90;999.90;;;4.80;99.90;;;;;;5004390;28;20233;-85
2021/01/02 11:07:10;;;;;;;1999.90;999.90;;;4.70;99.90;;;;;;5004666;28;20266;-85
2021/01/02 11:09:39;;;;;;;1999.90;999.90;;;4.70;99.90;;;;;;5021963;28;20220;-85
2021/01/02 11:12:05;;;;;;;1999.90;999.90;;;4.60;99.90;;;;;;5022017;28;20161;-85
2021/01/02 11:14:31;;;;;;;1999.90;999.90;;;4.60;99.90;;;;;;5005220;28;20276;-85
2021/01/02 11:16:56;;;;;;;1999.90;999.90;;;4.50;99.90;;;;;;5004399;28;20748;-85
2021/01/02 11:19:29;;;;;;;1999.90;999.90;;;4.50;99.90;;;;;;5003230;28;20541;-85
2021/01/02 11:21:59;;;;;;;1999.90;999.90;;;4.60;99.90;;;;;;5019356;28;20158;-85
2021/01/02 11:24:28;;;;;;;1999.90;999.90;;;4.70;99.90;;;;;;5001543;28;20261;-85
2021/01/02 11:26:57;;;;;;;1999.90;999.90;;;4.60;99.90;;;;;;5001366;28;20695;-85
2021/01/02 11:29:25;;;;;;;1999.90;999.90;;;4.70;99.90;;;;;;5018191;28;20162;-85
2021/01/02 11:31:52;;;;;;;1999.90;999.90;;;5.00;99.90;;;;;;5018871;28;20169;-85
2021/01/02 11:34:19;;;;;;;1999.90;999.90;;;5.00;99.90;;;;;;5018992;28;20158;-85
2021/01/02 11:36:52;;;;;;;1999.90;999.90;;;5.00;99.90;;;;;;5001260;28;20525;-85
2021/01/02 11:39:18;;;;;;;1999.90;999.90;;;5.10;99.90;;;;;;5018709;28;20158;-85
2021/01/02 11:41:45;;;;;;;1999.90;999.90;;;5.10;99.90;;;;;;5018884;28;20166;-84
2021/01/02 11:44:15;;;;;;;1999.90;999.90;;;5.20;99.90;;;;;;5019711;28;20190;-85
2021/01/02 11:46:48;;;;;;;1999.90;999.90;;;5.30;99.90;;;;;;5018637;28;20218;-85
2021/01/02 11:49:17;;;;;;;1999.90;999.90;;;5.20;99.90;;;;;;5018551;28;20556;-85
2021/01/02 11:51:48;;;;;;;1999.90;999.90;;;5.00;99.90;;;;;;5019230;28;20568;-85
2021/01/02 11:54:14;;;;;;;1999.90;999.90;;;4.90;99.90;;;;;;5018314;28;20154;-85
2021/01/02 11:56:39;;;;;;;1999.90;999.90;;;5.00;99.90;;;;;;5018397;28;20180;-85
2021/01/02 11:59:05;;;;;;;1999.90;999.90;;;5.00;99.90;;;;;;5000216;28;20178;-85
2021/01/02 12:01:39;;;;;;;1999.90;999.90;;;5.00;99.90;;;;;;5018276;28;20169;-85
2021/01/02 12:04:09;;;;;;;1999.90;999.90;;;5.00;99.90;;;;;;5018293;28;20186;-85
2021/01/02 12:06:35;;;;;;;1999.90;999.90;;;5.10;99.90;;;;;;5018246;28;20216;-85
2021/01/02 12:09:01;;;;;;;1999.90;999.90;;;5.00;99.90;;;;;;5018308;28;20162;-85
2021/01/02 12:11:33;;;;;;;1999.90;999.90;;;5.00;99.90;;;;;;5017760;28;20429;-85
2021/01/02 12:14:00;;;;;;;1999.90;999.90;;;5.00;99.90;;;;;;5017620;28;20540;-85
2021/01/02 12:16:33;;;;;;;1999.90;999.90;;;5.00;99.90;;;;;;5000624;28;20184;-85
2021/01/02 12:18:59;;;;;;;1999.90;999.90;;;5.10;99.90;;;;;;5000393;28;20178;-85
2021/01/02 12:21:25;;;;;;;1999.90;999.90;;;5.20;99.90;;;;;;5017419;28;20564;-84
2021/01/02 12:23:52;;;;;;;1999.90;999.90;;;5.00;99.90;;;;;;5017889;28;20208;-85
2021/01/02 12:26:18;;;;;;;1999.90;999.90;;;4.80;99.90;;;;;;4999671;28;20525;-85
2021/01/02 12:28:45;;;;;;;1999.90;999.90;;;4.80;99.90;;;;;;5001038;28;20176;-85
2021/01/02 12:31:38;;;;;;;1999.90;999.90;;;4.80;99.90;;;;;;5017723;28;20248;-85
2021/01/02 12:34:04;;;;;;;1999.90;999.90;;;5.10;99.90;;;;;;5016016;28;20220;-85